createdAt,value
2019-03-31T00:01:07.591Z,4.09
2019-03-31T00:03:28.717Z,4.02
2019-03-31T00:05:58.797Z,3.98
2019-03-31T00:08:28.896Z,3.95
2019-03-31T00:11:00.615Z,3.91
2019-03-31T00:13:30.944Z,3.90
2019-03-31T00:16:00.999Z,3.90
2019-03-31T00:18:31.114Z,3.85
2019-03-31T00:21:01.193Z,3.83
2019-03-31T00:23:31.288Z,3.80
2019-03-31T00:26:01.371Z,3.78
2019-03-31T00:28:31.442Z,3.78
2019-03-31T00:31:01.536Z,3.81
2019-03-31T00:33:31.630Z,3.80
2019-03-31T00:36:01.706Z,3.83
2019-03-31T00:38:31.866Z,3.83
2019-03-31T00:41:01.953Z,3.84
2019-03-31T00:43:32.031Z,3.86
2019-03-31T00:46:02.109Z,3.86
2019-03-31T00:48:32.199Z,3.82
2019-03-31T00:51:02.399Z,3.80
2019-03-31T00:53:32.485Z,3.72
2019-03-31T00:56:02.579Z,3.70
2019-03-31T00:58:32.721Z,3.71
2019-03-31T01:01:36.849Z,3.49
2019-03-31T01:04:02.684Z,3.61
2019-03-31T01:06:32.938Z,3.54
2019-03-31T01:09:03.895Z,3.48
2019-03-31T01:11:34.032Z,3.45
2019-03-31T01:14:04.122Z,3.39
2019-03-31T01:16:34.243Z,3.36
2019-03-31T01:19:04.449Z,3.33
2019-03-31T01:21:34.527Z,3.29
2019-03-31T01:24:04.609Z,3.31
2019-03-31T01:26:34.671Z,3.33
2019-03-31T01:29:05.219Z,3.35
2019-03-31T01:31:35.283Z,3.35
2019-03-31T01:34:05.763Z,3.34
2019-03-31T01:36:35.852Z,3.38
2019-03-31T01:39:07.121Z,3.36
2019-03-31T01:41:37.190Z,3.34
2019-03-31T01:44:07.372Z,3.36
2019-03-31T01:46:37.453Z,3.31
2019-03-31T01:49:07.526Z,3.29
2019-03-31T01:51:37.600Z,3.25
2019-03-31T01:54:07.681Z,3.20
2019-03-31T01:56:37.771Z,3.19
2019-03-31T01:59:07.839Z,3.18
2019-03-31T02:01:38.010Z,3.17
2019-03-31T02:04:08.088Z,3.16
2019-03-31T02:06:38.206Z,3.10
2019-03-31T02:09:08.530Z,3.07
2019-03-31T02:11:38.632Z,3.08
2019-03-31T02:14:08.699Z,3.08
2019-03-31T02:16:38.806Z,3.05
2019-03-31T02:19:08.898Z,3.06
2019-03-31T02:21:39.050Z,3.04
2019-03-31T02:24:09.148Z,3.03
2019-03-31T02:26:39.245Z,3.01
2019-03-31T02:29:09.327Z,2.99
2019-03-31T02:31:39.427Z,2.95
2019-03-31T02:34:09.509Z,2.94
2019-03-31T02:36:39.683Z,2.90
2019-03-31T02:39:09.774Z,2.87
2019-03-31T02:41:39.866Z,2.85
2019-03-31T02:44:09.936Z,2.81
2019-03-31T02:46:40.021Z,2.77
2019-03-31T02:49:10.167Z,2.73
2019-03-31T02:51:40.285Z,2.69
2019-03-31T02:54:10.363Z,2.66
2019-03-31T02:56:40.455Z,2.61
2019-03-31T02:59:10.598Z,2.54
2019-03-31T03:01:40.673Z,2.44
2019-03-31T03:04:10.808Z,2.36
2019-03-31T03:06:40.937Z,2.28
2019-03-31T03:09:11.039Z,2.24
2019-03-31T03:11:41.131Z,2.16
2019-03-31T03:14:11.233Z,2.11
2019-03-31T03:16:41.313Z,2.07
2019-03-31T03:19:11.395Z,2.09
2019-03-31T03:21:41.518Z,2.03
2019-03-31T03:24:11.604Z,2.04
2019-03-31T03:26:41.678Z,2.05
2019-03-31T03:29:11.782Z,2.09
2019-03-31T03:31:41.991Z,2.15
2019-03-31T03:34:12.074Z,2.19
2019-03-31T03:36:43.553Z,2.27
2019-03-31T03:39:13.837Z,2.39
2019-03-31T03:41:43.901Z,2.55
2019-03-31T03:44:13.994Z,2.71
2019-03-31T03:46:44.086Z,2.81
2019-03-31T03:49:14.475Z,2.93
2019-03-31T03:51:44.658Z,3.07
2019-03-31T03:54:14.767Z,3.23
2019-03-31T03:56:44.841Z,3.42
2019-03-31T03:59:14.926Z,3.59
2019-03-31T04:01:45.018Z,3.77
2019-03-31T04:04:15.117Z,3.83
2019-03-31T04:06:45.192Z,3.96
2019-03-31T04:09:15.302Z,4.04
2019-03-31T04:11:45.404Z,4.17
2019-03-31T04:14:15.517Z,4.30
2019-03-31T04:16:45.679Z,4.41
2019-03-31T04:19:15.749Z,4.52
2019-03-31T04:21:45.828Z,4.65
2019-03-31T04:24:15.899Z,4.76
2019-03-31T04:26:45.990Z,4.89
2019-03-31T04:29:16.083Z,5.05
2019-03-31T04:31:46.159Z,5.17
2019-03-31T04:34:16.274Z,5.31
2019-03-31T04:36:46.374Z,5.41
2019-03-31T04:39:16.459Z,5.46
2019-03-31T04:41:46.540Z,5.55
2019-03-31T04:44:16.675Z,5.61
2019-03-31T04:46:46.793Z,5.68
2019-03-31T04:49:16.900Z,5.63
2019-03-31T04:51:46.998Z,5.70
2019-03-31T04:54:17.073Z,5.72
2019-03-31T04:56:47.286Z,5.78
2019-03-31T04:59:17.476Z,5.93
2019-03-31T05:01:47.611Z,6.08
2019-03-31T05:04:17.696Z,6.26
2019-03-31T05:06:47.843Z,6.39
2019-03-31T05:09:17.919Z,6.53
2019-03-31T05:11:47.993Z,6.64
2019-03-31T05:14:18.086Z,6.66
2019-03-31T05:16:48.216Z,6.59
2019-03-31T05:19:18.294Z,6.46
2019-03-31T05:21:48.377Z,6.37
2019-03-31T05:24:18.460Z,6.20
2019-03-31T05:26:48.728Z,6.45
2019-03-31T05:29:19.290Z,6.70
2019-03-31T05:31:49.403Z,6.95
2019-03-31T05:34:19.742Z,7.08
2019-03-31T05:36:49.846Z,7.31
2019-03-31T05:39:19.979Z,7.43
2019-03-31T05:41:50.054Z,7.65
2019-03-31T05:44:20.274Z,7.87
2019-03-31T05:46:50.345Z,8.02
2019-03-31T05:49:20.509Z,8.01
2019-03-31T05:51:50.602Z,8.22
2019-03-31T05:54:20.681Z,8.37
2019-03-31T05:56:50.760Z,8.51
2019-03-31T05:59:20.837Z,8.72
2019-03-31T06:01:50.936Z,8.92
2019-03-31T06:04:32.647Z,9.04
2019-03-31T06:06:52.948Z,9.17
2019-03-31T06:09:23.073Z,9.38
2019-03-31T06:11:53.630Z,9.35
2019-03-31T06:14:24.102Z,9.26
2019-03-31T06:16:54.186Z,8.99
2019-03-31T06:19:24.319Z,9.03
2019-03-31T06:21:54.560Z,8.94
2019-03-31T06:24:24.739Z,9.06
2019-03-31T06:26:54.839Z,8.93
2019-03-31T06:29:24.964Z,8.82
2019-03-31T06:31:55.053Z,8.62
2019-03-31T06:34:25.196Z,8.46
2019-03-31T06:36:55.384Z,8.45
2019-03-31T06:39:25.559Z,8.59
2019-03-31T06:41:55.662Z,8.69
2019-03-31T06:44:25.836Z,8.86
2019-03-31T06:46:55.900Z,8.60
2019-03-31T06:49:26.023Z,8.81
2019-03-31T06:51:56.094Z,9.08
2019-03-31T06:54:26.185Z,9.23
2019-03-31T06:56:56.256Z,9.37
2019-03-31T06:59:26.375Z,9.50
2019-03-31T07:01:56.471Z,9.52
2019-03-31T07:04:26.571Z,9.59
2019-03-31T07:06:56.639Z,9.86
2019-03-31T07:09:26.731Z,10.01
2019-03-31T07:11:56.836Z,10.12
2019-03-31T07:14:26.938Z,10.03
2019-03-31T07:16:56.995Z,10.22
2019-03-31T07:19:27.094Z,10.40
2019-03-31T07:21:57.188Z,10.65
2019-03-31T07:24:27.296Z,10.67
2019-03-31T07:26:57.437Z,10.83
2019-03-31T07:29:27.541Z,11.11
2019-03-31T07:31:57.637Z,11.45
2019-03-31T07:34:27.799Z,11.69
2019-03-31T07:36:57.877Z,11.89
2019-03-31T07:39:28.089Z,11.98
2019-03-31T07:41:58.326Z,12.53
2019-03-31T07:44:28.518Z,13.03
2019-03-31T07:46:58.598Z,13.53
2019-03-31T07:49:28.692Z,13.96
2019-03-31T07:51:58.795Z,14.23
2019-03-31T07:54:28.938Z,14.60
2019-03-31T07:56:59.156Z,15.04
2019-03-31T07:59:29.241Z,14.99
2019-03-31T08:01:59.328Z,15.29
2019-03-31T08:04:29.403Z,15.65
2019-03-31T08:06:59.478Z,16.02
2019-03-31T08:09:29.558Z,16.18
2019-03-31T08:11:59.639Z,16.38
2019-03-31T08:14:29.707Z,16.44
2019-03-31T08:16:59.800Z,16.70
2019-03-31T08:19:29.973Z,16.78
2019-03-31T08:22:00.054Z,17.04
2019-03-31T08:24:31.925Z,17.03
2019-03-31T08:27:05.497Z,17.11
2019-03-31T08:29:33.981Z,17.36
2019-03-31T08:32:04.199Z,17.40
2019-03-31T08:34:34.432Z,17.51
2019-03-31T08:37:04.578Z,17.79
2019-03-31T08:39:34.679Z,18.00
2019-03-31T08:42:05.497Z,18.33
2019-03-31T08:44:36.436Z,18.43
2019-03-31T08:47:07.784Z,18.59
2019-03-31T08:49:37.997Z,18.86
2019-03-31T08:52:08.185Z,19.27
2019-03-31T08:54:38.791Z,19.39
2019-03-31T08:57:09.111Z,19.50
2019-03-31T08:59:39.244Z,19.48
2019-03-31T09:02:31.319Z,19.61
2019-03-31T09:05:01.545Z,19.48
2019-03-31T09:07:31.780Z,19.55
2019-03-31T09:10:01.975Z,19.89
2019-03-31T09:12:32.172Z,19.91
2019-03-31T09:15:02.337Z,19.72
2019-03-31T09:17:33.118Z,19.58
2019-03-31T09:20:03.199Z,19.68
2019-03-31T09:22:33.369Z,20.08
2019-03-31T09:25:03.527Z,20.29
2019-03-31T09:27:33.679Z,20.35
2019-03-31T09:30:04.021Z,20.45
2019-03-31T09:32:34.401Z,20.37
2019-03-31T09:35:04.764Z,20.71
2019-03-31T09:37:34.853Z,20.90
2019-03-31T09:40:05.392Z,21.37
2019-03-31T09:42:35.596Z,21.33
2019-03-31T09:45:06.028Z,20.80
2019-03-31T09:47:36.370Z,20.49
2019-03-31T09:50:07.719Z,20.90
2019-03-31T09:52:38.225Z,20.88
2019-03-31T09:55:09.009Z,20.74
2019-03-31T09:57:39.256Z,20.85
2019-03-31T10:00:10.441Z,20.92
2019-03-31T10:02:40.538Z,20.77
2019-03-31T10:05:10.654Z,20.90
2019-03-31T10:07:40.884Z,21.10
2019-03-31T10:10:12.674Z,21.22
2019-03-31T10:12:42.879Z,21.18
2019-03-31T10:15:13.010Z,21.32
2019-03-31T10:17:43.083Z,21.57
2019-03-31T10:20:13.185Z,21.82
2019-03-31T10:22:43.284Z,21.83
2019-03-31T10:25:14.814Z,22.29
2019-03-31T10:27:44.914Z,22.85
2019-03-31T10:30:18.966Z,22.44
2019-03-31T10:32:49.091Z,21.36
2019-03-31T10:35:19.189Z,21.02
2019-03-31T10:37:49.388Z,21.10
2019-03-31T10:40:19.505Z,21.48
2019-03-31T10:42:49.599Z,21.75
2019-03-31T10:45:19.818Z,22.06
2019-03-31T10:47:49.910Z,22.05
2019-03-31T10:50:20.030Z,22.01
2019-03-31T10:52:50.136Z,21.82
2019-03-31T10:55:20.313Z,22.08
2019-03-31T10:57:50.414Z,22.75
2019-03-31T11:00:35.015Z,23.22
2019-03-31T11:03:05.642Z,23.44
2019-03-31T11:05:35.887Z,23.42
2019-03-31T11:08:06.133Z,23.59
2019-03-31T11:10:36.668Z,23.65
2019-03-31T11:13:06.762Z,24.60
2019-03-31T11:15:36.878Z,25.63
2019-03-31T11:18:06.974Z,25.90
2019-03-31T11:20:37.080Z,26.23
2019-03-31T11:23:27.171Z,26.78
2019-03-31T11:25:57.292Z,26.51
2019-03-31T11:28:27.402Z,27.18
2019-03-31T11:30:57.490Z,26.65
2019-03-31T11:33:27.573Z,26.43
2019-03-31T11:35:57.764Z,26.27
2019-03-31T11:38:27.930Z,26.58
2019-03-31T11:40:58.060Z,27.44
2019-03-31T11:43:28.246Z,26.81
2019-03-31T11:45:58.369Z,27.37
2019-03-31T11:48:28.455Z,28.07
2019-03-31T11:51:00.455Z,27.31
2019-03-31T11:53:30.519Z,27.01
2019-03-31T11:56:00.817Z,27.98
2019-03-31T11:58:32.425Z,27.18
2019-03-31T12:01:04.292Z,27.59
2019-03-31T12:03:35.474Z,27.58
2019-03-31T12:06:05.572Z,27.78
2019-03-31T12:08:35.705Z,27.60
2019-03-31T12:11:05.967Z,27.99
2019-03-31T12:13:36.115Z,28.87
2019-03-31T12:16:06.215Z,29.02
2019-03-31T12:18:36.364Z,28.58
2019-03-31T12:21:06.526Z,27.53
2019-03-31T12:23:36.660Z,27.04
2019-03-31T12:26:06.736Z,26.92
2019-03-31T12:28:36.836Z,27.24
2019-03-31T12:31:06.947Z,27.74
2019-03-31T12:33:36.998Z,28.74
2019-03-31T12:36:07.323Z,27.86
2019-03-31T12:38:37.444Z,26.76
2019-03-31T12:41:07.535Z,25.23
2019-03-31T12:43:37.620Z,24.72
2019-03-31T12:46:07.706Z,23.63
2019-03-31T12:48:37.807Z,23.15
2019-03-31T12:51:07.881Z,22.53
2019-03-31T12:53:37.964Z,22.15
2019-03-31T12:56:08.067Z,21.45
2019-03-31T12:58:38.167Z,20.86
2019-03-31T13:01:08.289Z,20.57
2019-03-31T13:03:38.374Z,20.62
2019-03-31T13:06:08.471Z,20.45
2019-03-31T13:08:38.639Z,20.37
2019-03-31T13:11:08.979Z,20.14
2019-03-31T13:13:39.242Z,20.13
2019-03-31T13:16:09.423Z,20.03
2019-03-31T13:18:39.677Z,19.98
2019-03-31T13:21:09.860Z,19.96
2019-03-31T13:23:39.966Z,19.91
2019-03-31T13:26:10.065Z,19.78
2019-03-31T13:28:40.173Z,19.78
2019-03-31T13:31:10.439Z,19.71
2019-03-31T13:33:40.528Z,19.68
2019-03-31T13:36:10.624Z,19.71
2019-03-31T13:38:40.714Z,19.56
2019-03-31T13:41:10.843Z,19.64
2019-03-31T13:43:40.967Z,19.74
2019-03-31T13:46:11.039Z,19.73
2019-03-31T13:48:41.115Z,19.70
2019-03-31T13:51:11.302Z,19.70
2019-03-31T13:53:41.539Z,19.60
2019-03-31T13:56:11.871Z,19.47
2019-03-31T13:58:42.637Z,19.38
2019-03-31T14:01:12.872Z,19.43
2019-03-31T14:03:42.999Z,19.41
2019-03-31T14:06:13.097Z,19.43
2019-03-31T14:08:43.217Z,19.30
2019-03-31T14:11:13.322Z,19.29
2019-03-31T14:13:43.404Z,19.15
2019-03-31T14:16:13.517Z,19.00
2019-03-31T14:18:43.600Z,18.97
2019-03-31T14:21:13.717Z,18.82
2019-03-31T14:23:44.057Z,18.78
2019-03-31T14:26:14.310Z,18.71
2019-03-31T14:28:44.450Z,18.67
2019-03-31T14:31:14.550Z,18.66
2019-03-31T14:33:44.632Z,18.56
2019-03-31T14:36:14.725Z,18.53
2019-03-31T14:38:44.803Z,18.52
2019-03-31T14:41:14.895Z,18.43
2019-03-31T14:43:44.977Z,18.35
2019-03-31T14:46:15.095Z,18.37
2019-03-31T14:48:45.611Z,18.37
2019-03-31T14:51:15.695Z,18.33
2019-03-31T14:53:45.773Z,18.31
2019-03-31T14:56:18.461Z,18.10
2019-03-31T14:58:51.181Z,18.18
2019-03-31T15:01:21.491Z,18.19
2019-03-31T15:03:51.539Z,18.14
2019-03-31T15:06:33.281Z,18.10
2019-03-31T15:09:05.826Z,17.99
2019-03-31T15:11:35.938Z,17.97
2019-03-31T15:14:06.038Z,17.83
2019-03-31T15:16:36.158Z,17.88
2019-03-31T15:19:06.246Z,17.79
2019-03-31T15:21:43.857Z,17.71
2019-03-31T15:24:08.353Z,17.67
2019-03-31T15:26:38.490Z,17.61
2019-03-31T15:29:08.693Z,17.55
2019-03-31T15:31:38.856Z,17.52
2019-03-31T15:34:08.934Z,17.47
2019-03-31T15:36:39.191Z,17.37
2019-03-31T15:39:09.648Z,17.31
2019-03-31T15:41:39.702Z,17.16
2019-03-31T15:44:09.785Z,17.07
2019-03-31T15:46:39.878Z,17.06
2019-03-31T15:49:09.942Z,16.94
2019-03-31T15:51:40.032Z,16.87
2019-03-31T15:54:10.105Z,16.77
2019-03-31T15:56:40.215Z,16.77
2019-03-31T15:59:10.420Z,16.62
2019-03-31T16:01:40.688Z,16.54
2019-03-31T16:04:10.883Z,16.58
2019-03-31T16:06:41.033Z,16.46
2019-03-31T16:09:22.648Z,16.42
2019-03-31T16:11:53.146Z,16.31
2019-03-31T16:14:13.571Z,16.17
2019-03-31T16:16:43.131Z,16.16
2019-03-31T16:19:12.675Z,16.15
2019-03-31T16:21:44.204Z,16.01
2019-03-31T16:24:13.575Z,15.91
2019-03-31T16:26:43.151Z,15.82
2019-03-31T16:29:12.707Z,15.72
2019-03-31T16:31:42.351Z,15.61
2019-03-31T16:34:11.923Z,15.52
2019-03-31T16:36:41.473Z,15.41
2019-03-31T16:39:11.029Z,15.30
2019-03-31T16:41:40.603Z,15.18
2019-03-31T16:44:10.230Z,15.09
2019-03-31T16:46:40.092Z,15.00
2019-03-31T16:49:09.650Z,14.88
2019-03-31T16:51:39.263Z,14.78
2019-03-31T16:54:08.933Z,14.67
2019-03-31T16:56:36.648Z,14.58
2019-03-31T16:59:06.207Z,14.47
2019-03-31T17:01:35.757Z,14.41
2019-03-31T17:04:05.445Z,14.31
2019-03-31T17:06:35.174Z,14.16
2019-03-31T17:09:06.523Z,13.99
2019-03-31T17:11:36.274Z,13.84
2019-03-31T17:14:05.862Z,13.67
2019-03-31T17:16:35.549Z,13.52
2019-03-31T17:19:05.128Z,13.39
2019-03-31T17:21:34.889Z,13.28
2019-03-31T17:24:04.443Z,13.14
2019-03-31T17:26:34.098Z,13.02
2019-03-31T17:29:03.742Z,12.95
2019-03-31T17:31:33.325Z,12.86
2019-03-31T17:34:02.884Z,12.75
2019-03-31T17:36:32.561Z,12.63
2019-03-31T17:39:02.136Z,12.48
2019-03-31T17:41:31.712Z,12.44
2019-03-31T17:44:01.262Z,12.34
2019-03-31T17:46:30.911Z,12.24
2019-03-31T17:49:00.457Z,12.15
2019-03-31T17:51:30.132Z,12.10
2019-03-31T17:53:59.653Z,12.04
2019-03-31T17:56:29.208Z,11.99
2019-03-31T17:58:58.768Z,11.92
2019-03-31T18:01:28.300Z,11.84
2019-03-31T18:03:57.837Z,11.78
2019-03-31T18:06:27.363Z,11.73
2019-03-31T18:08:56.932Z,11.67
2019-03-31T18:11:26.471Z,11.61
2019-03-31T18:13:56.023Z,11.56
2019-03-31T18:16:25.607Z,11.52
2019-03-31T18:18:55.167Z,11.49
2019-03-31T18:21:27.187Z,11.47
2019-03-31T18:23:55.994Z,11.41
2019-03-31T18:26:25.578Z,11.34
2019-03-31T18:28:57.899Z,11.28
2019-03-31T18:31:28.916Z,11.22
2019-03-31T18:33:58.471Z,11.19
2019-03-31T18:36:36.365Z,11.12
2019-03-31T18:38:59.342Z,11.09
2019-03-31T18:41:29.020Z,11.06
2019-03-31T18:43:58.590Z,11.04
2019-03-31T18:46:28.147Z,11.04
2019-03-31T18:48:57.783Z,11.03
2019-03-31T18:51:27.436Z,11.00
2019-03-31T18:54:17.222Z,10.97
2019-03-31T18:57:01.597Z,10.91
2019-03-31T18:59:50.050Z,10.84
2019-03-31T19:02:37.517Z,10.76
2019-03-31T19:05:38.452Z,10.66
2019-03-31T19:08:25.420Z,10.59
2019-03-31T19:11:16.330Z,10.54
2019-03-31T19:14:22.054Z,10.52
2019-03-31T19:17:00.671Z,10.48
2019-03-31T19:19:49.162Z,10.44
2019-03-31T19:22:43.734Z,10.40
2019-03-31T19:25:27.146Z,10.37
2019-03-31T19:28:07.471Z,10.31
2019-03-31T19:30:58.882Z,10.28
2019-03-31T19:33:42.306Z,10.21
2019-03-31T19:36:39.921Z,10.17
2019-03-31T19:39:37.564Z,10.11
2019-03-31T19:42:34.988Z,10.05
2019-03-31T19:45:29.715Z,10.02
2019-03-31T19:48:21.178Z,9.97
2019-03-31T19:51:12.305Z,9.94
2019-03-31T19:53:58.407Z,9.91
2019-03-31T19:56:45.559Z,9.86
2019-03-31T19:59:28.674Z,9.79
2019-03-31T20:02:06.821Z,9.73
2019-03-31T20:04:54.061Z,9.67
2019-03-31T20:07:42.423Z,9.62
2019-03-31T20:10:46.046Z,9.57
2019-03-31T20:13:33.292Z,9.51
2019-03-31T20:16:21.813Z,9.44
2019-03-31T20:19:05.460Z,9.33
2019-03-31T20:21:40.297Z,9.26
2019-03-31T20:24:23.822Z,9.25
2019-03-31T20:27:17.231Z,9.19
2019-03-31T20:30:08.384Z,9.11
2019-03-31T20:32:49.892Z,9.05
2019-03-31T20:35:41.103Z,9.01
2019-03-31T20:38:35.360Z,8.95
2019-03-31T20:41:10.116Z,8.88
2019-03-31T20:43:58.473Z,8.80
2019-03-31T20:46:28.022Z,8.73
2019-03-31T20:48:57.586Z,8.71
2019-03-31T20:51:27.176Z,8.67
2019-03-31T20:53:56.802Z,8.64
2019-03-31T20:56:26.334Z,8.61
2019-03-31T20:58:55.907Z,8.58
2019-03-31T21:01:25.515Z,8.55
2019-03-31T21:03:55.127Z,8.54
2019-03-31T21:06:24.639Z,8.52
2019-03-31T21:08:54.179Z,8.53
2019-03-31T21:11:23.791Z,8.49
2019-03-31T21:13:56.857Z,8.49
2019-03-31T21:16:24.765Z,8.43
2019-03-31T21:18:54.316Z,8.36
2019-03-31T21:21:23.923Z,8.27
2019-03-31T21:23:53.518Z,8.18
2019-03-31T21:26:23.116Z,8.12
2019-03-31T21:28:52.879Z,8.13
2019-03-31T21:31:23.544Z,8.11
2019-03-31T21:33:53.332Z,8.11
2019-03-31T21:36:23.006Z,8.09
2019-03-31T21:38:52.630Z,8.07
2019-03-31T21:41:22.174Z,8.04
2019-03-31T21:43:53.409Z,8.03
2019-03-31T21:46:22.890Z,8.01
2019-03-31T21:48:52.423Z,8.05
2019-03-31T21:51:21.984Z,8.01
2019-03-31T21:53:51.508Z,8.03
2019-03-31T21:56:21.048Z,8.02
2019-03-31T21:58:50.632Z,8.07
2019-03-31T22:01:20.242Z,8.15
2019-03-31T22:03:49.807Z,8.29
2019-03-31T22:06:19.352Z,8.28
2019-03-31T22:08:48.890Z,8.29
2019-03-31T22:11:18.448Z,8.28
2019-03-31T22:13:48.140Z,8.26
2019-03-31T22:16:17.691Z,8.20
2019-03-31T22:18:47.237Z,8.18
2019-03-31T22:21:16.832Z,8.10
2019-03-31T22:23:57.451Z,8.05
2019-03-31T22:26:19.669Z,7.98
2019-03-31T22:28:49.066Z,7.93
2019-03-31T22:31:18.622Z,7.85
2019-03-31T22:33:48.175Z,7.80
2019-03-31T22:36:24.009Z,7.78
2019-03-31T22:38:54.013Z,7.72
2019-03-31T22:41:23.552Z,7.67
2019-03-31T22:43:53.099Z,7.63
2019-03-31T22:46:22.653Z,7.58
2019-03-31T22:48:52.238Z,7.52
2019-03-31T22:51:21.784Z,7.46
2019-03-31T22:53:51.311Z,7.43
2019-03-31T22:56:20.928Z,7.41
2019-03-31T22:58:50.476Z,7.36
2019-03-31T23:01:20.131Z,7.30
2019-03-31T23:03:49.652Z,7.21
2019-03-31T23:06:19.211Z,7.15
2019-03-31T23:08:48.756Z,7.11
2019-03-31T23:11:18.297Z,7.10
2019-03-31T23:13:47.858Z,7.08
2019-03-31T23:16:17.410Z,7.06
2019-03-31T23:18:47.070Z,7.00
2019-03-31T23:21:16.616Z,6.90
2019-03-31T23:23:46.144Z,6.75
2019-03-31T23:26:15.704Z,6.66
2019-03-31T23:28:48.368Z,6.59
2019-03-31T23:31:18.341Z,6.55
2019-03-31T23:33:47.887Z,6.53
2019-03-31T23:36:17.435Z,6.54
2019-03-31T23:38:46.947Z,6.54
2019-03-31T23:41:16.487Z,6.55
2019-03-31T23:43:46.024Z,6.57
2019-03-31T23:46:15.568Z,6.55
2019-03-31T23:48:45.111Z,6.53
2019-03-31T23:51:14.655Z,6.50
2019-03-31T23:53:44.211Z,6.46
2019-03-31T23:56:14.210Z,6.40
2019-03-31T23:58:43.847Z,6.35
